Time,TemperatureF,DewpointF,PressureIn,WindDirection,WindDirectionDegrees,WindSpeedMPH,WindSpeedGustMPH,Humidity,HourlyPrecipIn,Conditions,Clouds,dailyrainin,SoftwareType,DateUTC
2013-01-16 00:02:00,29.0,29.0,-100.00,SSW,200,6.0,10.0,98,-99.99,,,-99.99,,2013-01-16 06:02:00,
2013-01-16 00:12:00,29.0,29.0,-100.00,SSW,200,6.0,10.0,98,-99.99,,,-99.99,,2013-01-16 06:12:00,
2013-01-16 00:22:00,29.0,29.0,-100.00,SSW,200,6.0,10.0,98,-99.99,,,-99.99,,2013-01-16 06:22:00,
2013-01-16 00:32:00,34.0,33.0,-100.00,West,275,11.0,14.0,98,-99.99,,,-99.99,,2013-01-16 06:32:00,
2013-01-16 00:43:00,34.0,33.0,-100.00,West,275,11.0,14.0,98,-99.99,,,-99.99,,2013-01-16 06:43:00,
2013-01-16 00:53:00,34.0,33.0,-100.00,West,275,11.0,14.0,98,-99.99,,,-99.99,,2013-01-16 06:53:00,
2013-01-16 01:02:00,36.0,34.0,-100.00,NW,310,16.0,24.0,91,-99.99,,,-99.99,,2013-01-16 07:02:00,
2013-01-16 01:12:00,36.0,34.0,-100.00,NW,310,16.0,24.0,91,-99.99,,,-99.99,,2013-01-16 07:12:00,
2013-01-16 01:22:00,36.0,34.0,-100.00,NW,310,16.0,24.0,91,-99.99,,,-99.99,,2013-01-16 07:22:00,
2013-01-16 01:32:00,31.0,29.0,-100.00,NNW,345,23.0,35.0,92,-99.99,,,-99.99,,2013-01-16 07:32:00,
2013-01-16 01:42:00,31.0,29.0,-100.00,NNW,345,23.0,35.0,92,-99.99,,,-99.99,,2013-01-16 07:42:00,
2013-01-16 01:52:00,31.0,29.0,-100.00,NNW,345,23.0,35.0,92,-99.99,,,-99.99,,2013-01-16 07:52:00,
2013-01-16 02:02:00,27.0,26.0,-100.00,NNW,345,18.0,35.0,93,-99.99,,,-99.99,,2013-01-16 08:02:00,
2013-01-16 02:12:00,27.0,26.0,-100.00,NNW,345,18.0,35.0,93,-99.99,,,-99.99,,2013-01-16 08:12:00,
2013-01-16 02:22:00,27.0,26.0,-100.00,NNW,345,18.0,35.0,93,-99.99,,,-99.99,,2013-01-16 08:22:00,
2013-01-16 02:32:00,25.0,23.0,-100.00,NNW,340,21.0,32.0,91,-99.99,,,-99.99,,2013-01-16 08:32:00,
2013-01-16 02:42:00,25.0,23.0,-100.00,NNW,340,21.0,32.0,91,-99.99,,,-99.99,,2013-01-16 08:42:00,
2013-01-16 02:53:00,25.0,23.0,-100.00,NNW,340,21.0,32.0,91,-99.99,,,-99.99,,2013-01-16 08:53:00,
2013-01-16 03:02:00,24.0,21.0,-100.00,NNW,340,21.0,35.0,87,-99.99,,,-99.99,,2013-01-16 09:02:00,
2013-01-16 03:12:00,24.0,21.0,-100.00,NNW,340,21.0,35.0,87,-99.99,,,-99.99,,2013-01-16 09:12:00,
2013-01-16 03:22:00,24.0,21.0,-100.00,NNW,340,21.0,35.0,87,-99.99,,,-99.99,,2013-01-16 09:22:00,
2013-01-16 03:32:00,22.0,18.0,-100.00,NNW,340,25.0,37.0,86,-99.99,,,-99.99,,2013-01-16 09:32:00,
2013-01-16 03:43:00,22.0,18.0,-100.00,NNW,340,25.0,37.0,86,-99.99,,,-99.99,,2013-01-16 09:43:00,
2013-01-16 03:53:00,22.0,18.0,-100.00,NNW,340,25.0,37.0,86,-99.99,,,-99.99,,2013-01-16 09:53:00,
2013-01-16 04:02:00,19.0,15.0,-100.00,North,355,22.0,34.0,86,-99.99,,,-99.99,,2013-01-16 10:02:00,
2013-01-16 04:12:00,19.0,15.0,-100.00,North,355,22.0,34.0,86,-99.99,,,-99.99,,2013-01-16 10:12:00,
2013-01-16 04:22:00,19.0,15.0,-100.00,North,355,22.0,34.0,86,-99.99,,,-99.99,,2013-01-16 10:22:00,
2013-01-16 04:32:00,15.0,13.0,-100.00,NNW,345,19.0,33.0,90,-99.99,,,-99.99,,2013-01-16 10:32:00,
2013-01-16 04:43:00,15.0,13.0,-100.00,NNW,345,19.0,33.0,90,-99.99,,,-99.99,,2013-01-16 10:43:00,
2013-01-16 04:53:00,15.0,13.0,-100.00,NNW,345,19.0,33.0,90,-99.99,,,-99.99,,2013-01-16 10:53:00,
2013-01-16 05:02:00,14.0,12.0,-100.00,NNW,335,21.0,28.0,91,-99.99,,,-99.99,,2013-01-16 11:02:00,
2013-01-16 05:12:00,14.0,12.0,-100.00,NNW,335,21.0,28.0,91,-99.99,,,-99.99,,2013-01-16 11:12:00,
2013-01-16 05:22:00,14.0,12.0,-100.00,NNW,335,21.0,28.0,91,-99.99,,,-99.99,,2013-01-16 11:22:00,
2013-01-16 05:32:00,14.0,12.0,-100.00,North,350,17.0,29.0,91,-99.99,,,-99.99,,2013-01-16 11:32:00,
2013-01-16 05:43:00,14.0,12.0,-100.00,North,350,17.0,29.0,91,-99.99,,,-99.99,,2013-01-16 11:43:00,
2013-01-16 05:53:00,14.0,12.0,-100.00,North,350,17.0,29.0,91,-99.99,,,-99.99,,2013-01-16 11:53:00,
2013-01-16 06:03:00,13.0,11.0,-100.00,North,350,16.0,27.0,90,-99.99,,,-99.99,,2013-01-16 12:03:00,
2013-01-16 06:13:00,13.0,11.0,-100.00,North,350,16.0,27.0,90,-99.99,,,-99.99,,2013-01-16 12:13:00,
2013-01-16 06:22:00,13.0,11.0,-100.00,North,350,16.0,27.0,90,-99.99,,,-99.99,,2013-01-16 12:22:00,
2013-01-16 06:33:00,13.0,9.0,-100.00,NNW,345,22.0,31.0,85,-99.99,,,-99.99,,2013-01-16 12:33:00,
2013-01-16 06:43:00,13.0,9.0,-100.00,NNW,345,22.0,31.0,85,-99.99,,,-99.99,,2013-01-16 12:43:00,
2013-01-16 06:53:00,13.0,9.0,-100.00,NNW,345,22.0,31.0,85,-99.99,,,-99.99,,2013-01-16 12:53:00,
2013-01-16 07:03:00,12.0,8.0,-100.00,North,350,19.0,28.0,82,-99.99,,,-99.99,,2013-01-16 13:03:00,
2013-01-16 07:12:00,12.0,8.0,-100.00,North,350,19.0,28.0,82,-99.99,,,-99.99,,2013-01-16 13:12:00,
2013-01-16 07:22:00,12.0,8.0,-100.00,North,350,19.0,28.0,82,-99.99,,,-99.99,,2013-01-16 13:22:00,
2013-01-16 07:33:00,12.0,7.0,-100.00,NNW,340,18.0,26.0,81,-99.99,,,-99.99,,2013-01-16 13:33:00,
2013-01-16 07:43:00,12.0,7.0,-100.00,NNW,340,18.0,26.0,81,-99.99,,,-99.99,,2013-01-16 13:43:00,
2013-01-16 07:53:00,12.0,7.0,-100.00,NNW,340,18.0,26.0,81,-99.99,,,-99.99,,2013-01-16 13:53:00,
2013-01-16 08:03:00,11.0,6.0,-100.00,North,350,14.0,25.0,81,-99.99,,,-99.99,,2013-01-16 14:03:00,
2013-01-16 08:12:00,11.0,6.0,-100.00,North,350,14.0,25.0,81,-99.99,,,-99.99,,2013-01-16 14:12:00,
2013-01-16 08:23:00,11.0,6.0,-100.00,North,350,14.0,25.0,81,-99.99,,,-99.99,,2013-01-16 14:23:00,
2013-01-16 08:33:00,10.0,5.0,-100.00,North,0,18.0,27.0,80,-99.99,,,-99.99,,2013-01-16 14:33:00,
2013-01-16 08:43:00,10.0,5.0,-100.00,North,0,18.0,27.0,80,-99.99,,,-99.99,,2013-01-16 14:43:00,
2013-01-16 08:53:00,10.0,5.0,-100.00,North,0,18.0,27.0,80,-99.99,,,-99.99,,2013-01-16 14:53:00,
2013-01-16 09:03:00,10.0,5.0,-100.00,North,0,12.0,21.0,82,-99.99,,,-99.99,,2013-01-16 15:03:00,
2013-01-16 09:12:00,10.0,5.0,-100.00,North,0,12.0,21.0,82,-99.99,,,-99.99,,2013-01-16 15:12:00,
2013-01-16 09:23:00,10.0,5.0,-100.00,North,0,12.0,21.0,82,-99.99,,,-99.99,,2013-01-16 15:23:00,
2013-01-16 09:33:00,8.0,3.0,-100.00,North,0,14.0,20.0,79,-99.99,,,-99.99,,2013-01-16 15:33:00,
2013-01-16 09:43:00,8.0,3.0,-100.00,North,0,14.0,20.0,79,-99.99,,,-99.99,,2013-01-16 15:43:00,
2013-01-16 09:53:00,8.0,3.0,-100.00,North,0,14.0,20.0,79,-99.99,,,-99.99,,2013-01-16 15:53:00,
2013-01-16 10:03:00,7.0,1.0,-100.00,North,350,12.0,21.0,76,-99.99,,,-99.99,,2013-01-16 16:03:00,
2013-01-16 10:12:00,7.0,1.0,-100.00,North,350,12.0,21.0,76,-99.99,,,-99.99,,2013-01-16 16:12:00,
2013-01-16 10:22:00,7.0,1.0,-100.00,North,350,12.0,21.0,76,-99.99,,,-99.99,,2013-01-16 16:22:00,
2013-01-16 10:33:00,6.0,-1.0,-100.00,North,5,15.0,20.0,72,-99.99,,,-99.99,,2013-01-16 16:33:00,
2013-01-16 10:43:00,6.0,-1.0,-100.00,North,5,15.0,20.0,72,-99.99,,,-99.99,,2013-01-16 16:43:00,
2013-01-16 10:53:00,6.0,-1.0,-100.00,North,5,15.0,20.0,72,-99.99,,,-99.99,,2013-01-16 16:53:00,
2013-01-16 11:03:00,5.0,-2.0,-100.00,NNW,345,16.0,23.0,71,-99.99,,,-99.99,,2013-01-16 17:03:00,
2013-01-16 11:12:00,5.0,-2.0,-100.00,NNW,345,16.0,23.0,71,-99.99,,,-99.99,,2013-01-16 17:12:00,
2013-01-16 11:23:00,5.0,-2.0,-100.00,NNW,345,16.0,23.0,71,-99.99,,,-99.99,,2013-01-16 17:23:00,
2013-01-16 11:33:00,5.0,-3.0,-100.00,NNW,345,17.0,21.0,68,-99.99,,,-99.99,,2013-01-16 17:33:00,
2013-01-16 11:44:00,5.0,-3.0,-100.00,NNW,345,17.0,21.0,68,-99.99,,,-99.99,,2013-01-16 17:44:00,
2013-01-16 11:53:00,5.0,-3.0,-100.00,NNW,345,17.0,21.0,68,-99.99,,,-99.99,,2013-01-16 17:53:00,
2013-01-16 12:03:00,4.0,-4.0,-100.00,NNW,335,16.0,24.0,69,-99.99,,,-99.99,,2013-01-16 18:03:00,
2013-01-16 12:13:00,4.0,-4.0,-100.00,NNW,335,16.0,24.0,69,-99.99,,,-99.99,,2013-01-16 18:13:00,
2013-01-16 12:23:00,4.0,-4.0,-100.00,NNW,335,16.0,24.0,69,-99.99,,,-99.99,,2013-01-16 18:23:00,
2013-01-16 12:33:00,5.0,-4.0,-100.00,NNW,345,17.0,25.0,67,-99.99,,,-99.99,,2013-01-16 18:33:00,
2013-01-16 12:43:00,5.0,-4.0,-100.00,NNW,345,17.0,25.0,67,-99.99,,,-99.99,,2013-01-16 18:43:00,
2013-01-16 12:53:00,5.0,-4.0,-100.00,NNW,345,17.0,25.0,67,-99.99,,,-99.99,,2013-01-16 18:53:00,
2013-01-16 13:03:00,4.0,-5.0,-100.00,NNW,345,19.0,26.0,65,-99.99,,,-99.99,,2013-01-16 19:03:00,
2013-01-16 13:12:00,4.0,-5.0,-100.00,NNW,345,19.0,26.0,65,-99.99,,,-99.99,,2013-01-16 19:12:00,
2013-01-16 13:23:00,4.0,-5.0,-100.00,NNW,345,19.0,26.0,65,-99.99,,,-99.99,,2013-01-16 19:23:00,
2013-01-16 13:33:00,2.0,-6.0,-100.00,North,350,17.0,23.0,67,-99.99,,,-99.99,,2013-01-16 19:33:00,
2013-01-16 13:43:00,2.0,-6.0,-100.00,North,350,17.0,23.0,67,-99.99,,,-99.99,,2013-01-16 19:43:00,
2013-01-16 13:53:00,2.0,-6.0,-100.00,North,350,17.0,23.0,67,-99.99,,,-99.99,,2013-01-16 19:53:00,
2013-01-16 14:03:00,2.0,-6.0,-100.00,NNW,340,17.0,24.0,68,-99.99,,,-99.99,,2013-01-16 20:03:00,
2013-01-16 14:12:00,2.0,-6.0,-100.00,NNW,340,17.0,24.0,68,-99.99,,,-99.99,,2013-01-16 20:12:00,
2013-01-16 14:23:00,2.0,-6.0,-100.00,NNW,340,17.0,24.0,68,-99.99,,,-99.99,,2013-01-16 20:23:00,
2013-01-16 14:33:00,2.0,-7.0,-100.00,North,355,16.0,26.0,65,-99.99,,,-99.99,,2013-01-16 20:33:00,
2013-01-16 14:43:00,2.0,-7.0,-100.00,North,355,16.0,26.0,65,-99.99,,,-99.99,,2013-01-16 20:43:00,
2013-01-16 14:53:00,2.0,-7.0,-100.00,North,355,16.0,26.0,65,-99.99,,,-99.99,,2013-01-16 20:53:00,
2013-01-16 15:03:00,2.0,-7.0,-100.00,NNW,345,16.0,22.0,66,-99.99,,,-99.99,,2013-01-16 21:03:00,
2013-01-16 15:12:00,2.0,-7.0,-100.00,NNW,345,16.0,22.0,66,-99.99,,,-99.99,,2013-01-16 21:12:00,
2013-01-16 15:22:00,2.0,-7.0,-100.00,NNW,345,16.0,22.0,66,-99.99,,,-99.99,,2013-01-16 21:22:00,
2013-01-16 15:33:00,1.0,-9.0,-100.00,NNW,345,21.0,26.0,63,-99.99,,,-99.99,,2013-01-16 21:33:00,
2013-01-16 15:43:00,1.0,-9.0,-100.00,NNW,345,21.0,26.0,63,-99.99,,,-99.99,,2013-01-16 21:43:00,
2013-01-16 15:53:00,1.0,-9.0,-100.00,NNW,345,21.0,26.0,63,-99.99,,,-99.99,,2013-01-16 21:53:00,
2013-01-16 16:02:00,2.0,-9.0,-100.00,North,355,14.0,21.0,61,-99.99,,,-99.99,,2013-01-16 22:02:00,
2013-01-16 16:12:00,2.0,-9.0,-100.00,North,355,14.0,21.0,61,-99.99,,,-99.99,,2013-01-16 22:12:00,
2013-01-16 16:23:00,2.0,-9.0,-100.00,North,355,14.0,21.0,61,-99.99,,,-99.99,,2013-01-16 22:23:00,
2013-01-16 16:33:00,0.0,-10.0,-100.00,NNW,340,16.0,22.0,61,-99.99,,,-99.99,,2013-01-16 22:33:00,
2013-01-16 16:43:00,0.0,-10.0,-100.00,NNW,340,16.0,22.0,61,-99.99,,,-99.99,,2013-01-16 22:43:00,
2013-01-16 16:53:00,0.0,-10.0,-100.00,NNW,340,16.0,22.0,61,-99.99,,,-99.99,,2013-01-16 22:53:00,
2013-01-16 17:03:00,-1.0,-12.0,-100.00,NNW,340,14.0,20.0,61,-99.99,,,-99.99,,2013-01-16 23:03:00,
2013-01-16 17:12:00,-1.0,-12.0,-100.00,NNW,340,14.0,20.0,61,-99.99,,,-99.99,,2013-01-16 23:12:00,
2013-01-16 17:23:00,-1.0,-12.0,-100.00,NNW,340,14.0,20.0,61,-99.99,,,-99.99,,2013-01-16 23:23:00,
2013-01-16 17:32:00,-3.0,-13.0,-100.00,North,0,11.0,19.0,61,-99.99,,,-99.99,,2013-01-16 23:32:00,
2013-01-16 17:43:00,-3.0,-13.0,-100.00,North,0,11.0,19.0,61,-99.99,,,-99.99,,2013-01-16 23:43:00,
2013-01-16 17:53:00,-3.0,-13.0,-100.00,North,0,11.0,19.0,61,-99.99,,,-99.99,,2013-01-16 23:53:00,
2013-01-16 18:02:00,-4.0,-12.0,-100.00,North,0,7.0,15.0,65,-99.99,,,-99.99,,2013-01-17 00:02:00,
2013-01-16 18:12:00,-4.0,-12.0,-100.00,North,0,7.0,15.0,65,-99.99,,,-99.99,,2013-01-17 00:12:00,
2013-01-16 18:22:00,-4.0,-12.0,-100.00,North,0,7.0,15.0,65,-99.99,,,-99.99,,2013-01-17 00:22:00,
2013-01-16 18:32:00,-4.0,-13.0,-100.00,North,355,6.0,11.0,66,-99.99,,,-99.99,,2013-01-17 00:32:00,
2013-01-16 18:42:00,-4.0,-13.0,-100.00,North,355,6.0,11.0,66,-99.99,,,-99.99,,2013-01-17 00:42:00,
2013-01-16 18:52:00,-4.0,-13.0,-100.00,North,355,6.0,11.0,66,-99.99,,,-99.99,,2013-01-17 00:52:00,
2013-01-16 19:02:00,-5.0,-13.0,-100.00,NNW,340,4.0,7.0,67,-99.99,,,-99.99,,2013-01-17 01:02:00,
2013-01-16 19:12:00,-5.0,-13.0,-100.00,NNW,340,4.0,7.0,67,-99.99,,,-99.99,,2013-01-17 01:12:00,
2013-01-16 19:22:00,-5.0,-13.0,-100.00,NNW,340,4.0,7.0,67,-99.99,,,-99.99,,2013-01-17 01:22:00,
2013-01-16 19:33:00,-4.0,-14.0,-100.00,NNW,335,10.0,13.0,63,-99.99,,,-99.99,,2013-01-17 01:33:00,
2013-01-16 19:43:00,-4.0,-14.0,-100.00,NNW,335,10.0,13.0,63,-99.99,,,-99.99,,2013-01-17 01:43:00,
2013-01-16 19:52:00,-4.0,-14.0,-100.00,NNW,335,10.0,13.0,63,-99.99,,,-99.99,,2013-01-17 01:52:00,
2013-01-16 20:02:00,-4.0,-14.0,-100.00,NNW,330,9.0,13.0,61,-99.99,,,-99.99,,2013-01-17 02:02:00,
2013-01-16 20:12:00,-4.0,-14.0,-100.00,NNW,330,9.0,13.0,61,-99.99,,,-99.99,,2013-01-17 02:12:00,
2013-01-16 20:22:00,-4.0,-14.0,-100.00,NNW,330,9.0,13.0,61,-99.99,,,-99.99,,2013-01-17 02:22:00,
2013-01-16 20:32:00,-4.0,-14.0,-100.00,NW,320,8.0,11.0,59,-99.99,,,-99.99,,2013-01-17 02:32:00,
2013-01-16 20:43:00,-4.0,-14.0,-100.00,NW,320,8.0,11.0,59,-99.99,,,-99.99,,2013-01-17 02:43:00,
2013-01-16 20:52:00,-4.0,-14.0,-100.00,NW,320,8.0,11.0,59,-99.99,,,-99.99,,2013-01-17 02:52:00,
2013-01-16 21:03:00,-4.0,-15.0,-100.00,NNW,330,9.0,14.0,57,-99.99,,,-99.99,,2013-01-17 03:03:00,
2013-01-16 21:12:00,-4.0,-15.0,-100.00,NNW,330,9.0,14.0,57,-99.99,,,-99.99,,2013-01-17 03:12:00,
2013-01-16 21:22:00,-4.0,-15.0,-100.00,NNW,330,9.0,14.0,57,-99.99,,,-99.99,,2013-01-17 03:22:00,
2013-01-16 21:32:00,-3.0,-14.0,-100.00,NW,320,9.0,12.0,59,-99.99,,,-99.99,,2013-01-17 03:32:00,
2013-01-16 21:43:00,-3.0,-14.0,-100.00,NW,320,9.0,12.0,59,-99.99,,,-99.99,,2013-01-17 03:43:00,
2013-01-16 21:53:00,-3.0,-14.0,-100.00,NW,320,9.0,12.0,59,-99.99,,,-99.99,,2013-01-17 03:53:00,
2013-01-16 22:02:00,-3.0,-13.0,-100.00,NW,325,9.0,11.0,62,-99.99,,,-99.99,,2013-01-17 04:02:00,
2013-01-16 22:12:00,-3.0,-13.0,-100.00,NW,325,9.0,11.0,62,-99.99,,,-99.99,,2013-01-17 04:12:00,
2013-01-16 22:22:00,-3.0,-13.0,-100.00,NW,325,9.0,11.0,62,-99.99,,,-99.99,,2013-01-17 04:22:00,
2013-01-16 22:32:00,-3.0,-12.0,-100.00,NNW,330,8.0,9.0,67,-99.99,,,-99.99,,2013-01-17 04:32:00,
2013-01-16 22:43:00,-3.0,-12.0,-100.00,NNW,330,8.0,9.0,67,-99.99,,,-99.99,,2013-01-17 04:43:00,
2013-01-16 22:52:00,-3.0,-12.0,-100.00,NNW,330,8.0,9.0,67,-99.99,,,-99.99,,2013-01-17 04:52:00,
2013-01-16 23:04:00,-3.0,-10.0,-100.00,ENE,60,3.0,5.0,70,-99.99,,,-99.99,,2013-01-17 05:04:00,
2013-01-16 23:12:00,-3.0,-10.0,-100.00,ENE,60,3.0,5.0,70,-99.99,,,-99.99,,2013-01-17 05:12:00,
2013-01-16 23:22:00,-3.0,-10.0,-100.00,ENE,60,3.0,5.0,70,-99.99,,,-99.99,,2013-01-17 05:22:00,
2013-01-16 23:33:00,-3.0,-10.0,-100.00,NE,50,5.0,6.0,70,-99.99,,,-99.99,,2013-01-17 05:33:00,
2013-01-16 23:43:00,-3.0,-10.0,-100.00,NE,50,5.0,6.0,70,-99.99,,,-99.99,,2013-01-17 05:43:00,
2013-01-16 23:53:00,-3.0,-10.0,-100.00,NE,50,5.0,6.0,70,-99.99,,,-99.99,,2013-01-17 05:53:00,